sensor_id;sensor_type;location;lat;lon;timestamp;pressure;altitude;pressure_sealevel;temperature;humidity
58473;BME280;44775;51.564;5.460;2023-04-22T00:01:04;100521.28;;;5.06;100.00
58473;BME280;44775;51.564;5.460;2023-04-22T00:03:30;100526.16;;;5.10;100.00
58473;BME280;44775;51.564;5.460;2023-04-22T00:05:57;100526.16;;;5.10;100.00
58473;BME280;44775;51.564;5.460;2023-04-22T00:08:22;100526.28;;;5.09;100.00
58473;BME280;44775;51.564;5.460;2023-04-22T00:10:48;100515.84;;;5.07;100.00
58473;BME280;44775;51.564;5.460;2023-04-22T00:13:13;100515.13;;;5.05;100.00
58473;BME280;44775;51.564;5.460;2023-04-22T00:15:38;100511.81;;;5.03;100.00
58473;BME280;44775;51.564;5.460;2023-04-22T00:18:03;100512.78;;;5.02;100.00
58473;BME280;44775;51.564;5.460;2023-04-22T00:20:29;100506.38;;;5.05;100.00
58473;BME280;44775;51.564;5.460;2023-04-22T00:22:56;100513.47;;;5.04;100.00
58473;BME280;44775;51.564;5.460;2023-04-22T00:25:21;100509.28;;;5.02;100.00
58473;BME280;44775;51.564;5.460;2023-04-22T00:27:46;100512.78;;;5.02;100.00
58473;BME280;44775;51.564;5.460;2023-04-22T00:30:12;100515.00;;;5.07;100.00
58473;BME280;44775;51.564;5.460;2023-04-22T00:32:37;100508.44;;;5.11;100.00
58473;BME280;44775;51.564;5.460;2023-04-22T00:35:03;100517.38;;;5.10;100.00
58473;BME280;44775;51.564;5.460;2023-04-22T00:37:28;100525.34;;;5.10;100.00
58473;BME280;44775;51.564;5.460;2023-04-22T00:39:53;100521.81;;;5.09;100.00
58473;BME280;44775;51.564;5.460;2023-04-22T00:42:18;100518.22;;;5.10;100.00
58473;BME280;44775;51.564;5.460;2023-04-22T00:44:45;100509.56;;;5.08;100.00
58473;BME280;44775;51.564;5.460;2023-04-22T00:47:11;100518.22;;;5.10;100.00
58473;BME280;44775;51.564;5.460;2023-04-22T00:49:38;100519.72;;;5.13;100.00
58473;BME280;44775;51.564;5.460;2023-04-22T00:52:03;100518.06;;;5.12;100.00
58473;BME280;44775;51.564;5.460;2023-04-22T00:54:28;100522.38;;;5.13;100.00
58473;BME280;44775;51.564;5.460;2023-04-22T00:56:55;100520.44;;;5.15;100.00
58473;BME280;44775;51.564;5.460;2023-04-22T00:59:20;100521.69;;;5.11;100.00
58473;BME280;44775;51.564;5.460;2023-04-22T01:01:46;100518.22;;;5.10;100.00
58473;BME280;44775;51.564;5.460;2023-04-22T01:04:12;100523.63;;;5.09;100.00
58473;BME280;44775;51.564;5.460;2023-04-22T01:06:38;100524.19;;;5.12;100.00
58473;BME280;44775;51.564;5.460;2023-04-22T01:09:03;100513.59;;;5.12;100.00
58473;BME280;44775;51.564;5.460;2023-04-22T01:11:29;100510.53;;;5.17;100.00
58473;BME280;44775;51.564;5.460;2023-04-22T01:13:54;100511.94;;;5.21;100.00
58473;BME280;44775;51.564;5.460;2023-04-22T01:16:20;100511.94;;;5.21;100.00
58473;BME280;44775;51.564;5.460;2023-04-22T01:18:46;100503.97;;;5.21;100.00
58473;BME280;44775;51.564;5.460;2023-04-22T01:21:11;100501.31;;;5.21;100.00
58473;BME280;44775;51.564;5.460;2023-04-22T01:23:37;100513.59;;;5.22;100.00
58473;BME280;44775;51.564;5.460;2023-04-22T01:26:02;100501.31;;;5.21;100.00
58473;BME280;44775;51.564;5.460;2023-04-22T01:28:27;100495.88;;;5.22;100.00
58473;BME280;44775;51.564;5.460;2023-04-22T01:30:53;100494.91;;;5.24;100.00
58473;BME280;44775;51.564;5.460;2023-04-22T01:33:19;100499.22;;;5.25;100.00
58473;BME280;44775;51.564;5.460;2023-04-22T01:35:44;100503.53;;;5.26;100.00
58473;BME280;44775;51.564;5.460;2023-04-22T01:38:10;100498.13;;;5.27;100.00
58473;BME280;44775;51.564;5.460;2023-04-22T01:40:36;100497.13;;;5.28;100.00
58473;BME280;44775;51.564;5.460;2023-04-22T01:43:02;100494.31;;;5.30;100.00
58473;BME280;44775;51.564;5.460;2023-04-22T01:45:27;100491.53;;;5.31;100.00
58473;BME280;44775;51.564;5.460;2023-04-22T01:47:52;100491.53;;;5.31;100.00
58473;BME280;44775;51.564;5.460;2023-04-22T01:50:18;100487.78;;;5.34;100.00
58473;BME280;44775;51.564;5.460;2023-04-22T01:52:43;100489.16;;;5.38;100.00
58473;BME280;44775;51.564;5.460;2023-04-22T01:55:08;100488.31;;;5.37;100.00
58473;BME280;44775;51.564;5.460;2023-04-22T01:57:34;100487.34;;;5.38;100.00
58473;BME280;44775;51.564;5.460;2023-04-22T01:59:59;100485.41;;;5.40;100.00
58473;BME280;44775;51.564;5.460;2023-04-22T02:02:24;100491.53;;;5.41;100.00
58473;BME280;44775;51.564;5.460;2023-04-22T02:04:50;100492.34;;;5.41;100.00
58473;BME280;44775;51.564;5.460;2023-04-22T02:07:15;100484.13;;;5.44;100.00
58473;BME280;44775;51.564;5.460;2023-04-22T02:09:40;100488.31;;;5.47;100.00
58473;BME280;44775;51.564;5.460;2023-04-22T02:12:05;100484.13;;;5.44;100.00
58473;BME280;44775;51.564;5.460;2023-04-22T02:14:31;100494.84;;;5.43;100.00
58473;BME280;44775;51.564;5.460;2023-04-22T02:16:56;100493.19;;;5.42;100.00
58473;BME280;44775;51.564;5.460;2023-04-22T02:19:21;100487.19;;;5.40;100.00
58473;BME280;44775;51.564;5.460;2023-04-22T02:21:46;100483.97;;;5.36;100.00
58473;BME280;44775;51.564;5.460;2023-04-22T02:24:11;100483.44;;;5.33;100.00
58473;BME280;44775;51.564;5.460;2023-04-22T02:26:37;100490.56;;;5.32;100.00
58473;BME280;44775;51.564;5.460;2023-04-22T02:29:02;100479.97;;;5.32;100.00
58473;BME280;44775;51.564;5.460;2023-04-22T02:31:27;100479.00;;;5.33;100.00
58473;BME280;44775;51.564;5.460;2023-04-22T02:33:52;100475.78;;;5.30;100.00
58473;BME280;44775;51.564;5.460;2023-04-22T02:36:17;100473.44;;;5.27;100.00
58473;BME280;44775;51.564;5.460;2023-04-22T02:38:43;100471.34;;;5.30;100.00
58473;BME280;44775;51.564;5.460;2023-04-22T02:41:08;100472.00;;;5.32;100.00
58473;BME280;44775;51.564;5.460;2023-04-22T02:43:33;100466.72;;;5.32;100.00
58473;BME280;44775;51.564;5.460;2023-04-22T02:45:58;100471.72;;;5.35;100.00
58473;BME280;44775;51.564;5.460;2023-04-22T02:48:23;100472.72;;;5.34;100.00
58473;BME280;44775;51.564;5.460;2023-04-22T02:50:49;100467.41;;;5.34;100.00
58473;BME280;44775;51.564;5.460;2023-04-22T02:53:14;100468.53;;;5.32;100.00
58473;BME280;44775;51.564;5.460;2023-04-22T02:55:40;100467.81;;;5.30;100.00
58473;BME280;44775;51.564;5.460;2023-04-22T02:58:05;100467.81;;;5.30;100.00
58473;BME280;44775;51.564;5.460;2023-04-22T03:00:30;100457.94;;;5.32;100.00
58473;BME280;44775;51.564;5.460;2023-04-22T03:02:56;100461.00;;;5.37;100.00
58473;BME280;44775;51.564;5.460;2023-04-22T03:05:21;100454.00;;;5.36;100.00
58473;BME280;44775;51.564;5.460;2023-04-22T03:07:48;100454.16;;;5.34;100.00
58473;BME280;44775;51.564;5.460;2023-04-22T03:10:13;100456.94;;;5.33;100.00
58473;BME280;44775;51.564;5.460;2023-04-22T03:12:38;100454.44;;;5.31;100.00
58473;BME280;44775;51.564;5.460;2023-04-22T03:15:04;100452.78;;;5.30;100.00
58473;BME280;44775;51.564;5.460;2023-04-22T03:17:29;100457.09;;;5.31;100.00
58473;BME280;44775;51.564;5.460;2023-04-22T03:19:55;100448.16;;;5.32;100.00
58473;BME280;44775;51.564;5.460;2023-04-22T03:22:20;100449.16;;;5.31;100.00
58473;BME280;44775;51.564;5.460;2023-04-22T03:24:45;100446.34;;;5.33;100.00
58473;BME280;44775;51.564;5.460;2023-04-22T03:27:10;100443.69;;;5.33;100.00
58473;BME280;44775;51.564;5.460;2023-04-22T03:29:35;100438.56;;;5.31;100.00
58473;BME280;44775;51.564;5.460;2023-04-22T03:32:01;100437.72;;;5.31;100.00
58473;BME280;44775;51.564;5.460;2023-04-22T03:34:26;100431.00;;;5.36;100.00
58473;BME280;44775;51.564;5.460;2023-04-22T03:36:51;100431.53;;;5.40;100.00
58473;BME280;44775;51.564;5.460;2023-04-22T03:39:16;100438.06;;;5.45;100.00
58473;BME280;44775;51.564;5.460;2023-04-22T03:41:41;100426.50;;;5.47;100.00
58473;BME280;44775;51.564;5.460;2023-04-22T03:44:07;100417.72;;;5.46;100.00
58473;BME280;44775;51.564;5.460;2023-04-22T03:46:32;100428.31;;;5.46;100.00
58473;BME280;44775;51.564;5.460;2023-04-22T03:48:57;100423.84;;;5.47;100.00
58473;BME280;44775;51.564;5.460;2023-04-22T03:51:22;100426.50;;;5.47;100.00
58473;BME280;44775;51.564;5.460;2023-04-22T03:53:47;100424.25;;;5.52;100.00
58473;BME280;44775;51.564;5.460;2023-04-22T03:56:13;100416.59;;;5.49;100.00
58473;BME280;44775;51.564;5.460;2023-04-22T03:58:38;100414.78;;;5.49;100.00
58473;BME280;44775;51.564;5.460;2023-04-22T04:01:03;100422.88;;;5.48;100.00
58473;BME280;44775;51.564;5.460;2023-04-22T04:03:28;100416.28;;;5.52;100.00
58473;BME280;44775;51.564;5.460;2023-04-22T04:05:53;100412.81;;;5.51;100.00
58473;BME280;44775;51.564;5.460;2023-04-22T04:08:19;100417.66;;;5.56;100.00
58473;BME280;44775;51.564;5.460;2023-04-22T04:10:44;100408.59;;;5.58;100.00
58473;BME280;44775;51.564;5.460;2023-04-22T04:13:09;100399.22;;;5.64;100.00
58473;BME280;44775;51.564;5.460;2023-04-22T04:15:35;100401.88;;;5.64;100.00
58473;BME280;44775;51.564;5.460;2023-04-22T04:18:00;100410.50;;;5.66;100.00
58473;BME280;44775;51.564;5.460;2023-04-22T04:20:27;100408.00;;;5.64;100.00
58473;BME280;44775;51.564;5.460;2023-04-22T04:22:52;100405.50;;;5.63;100.00
58473;BME280;44775;51.564;5.460;2023-04-22T04:25:17;100402.19;;;5.61;100.00
58473;BME280;44775;51.564;5.460;2023-04-22T04:27:45;100406.78;;;5.59;100.00
58473;BME280;44775;51.564;5.460;2023-04-22T04:30:10;100402.19;;;5.61;100.00
58473;BME280;44775;51.564;5.460;2023-04-22T04:32:36;100399.91;;;5.66;100.00
58473;BME280;44775;51.564;5.460;2023-04-22T04:35:01;100396.66;;;5.72;100.00
58473;BME280;44775;51.564;5.460;2023-04-22T04:37:27;100390.00;;;5.68;100.00
58473;BME280;44775;51.564;5.460;2023-04-22T04:39:52;100407.72;;;5.67;100.00
58473;BME280;44775;51.564;5.460;2023-04-22T04:42:17;100408.56;;;5.68;100.00
58473;BME280;44775;51.564;5.460;2023-04-22T04:44:43;100402.41;;;5.67;100.00
58473;BME280;44775;51.564;5.460;2023-04-22T04:47:09;100400.59;;;5.68;100.00
58473;BME280;44775;51.564;5.460;2023-04-22T04:49:34;100399.78;;;5.67;100.00
58473;BME280;44775;51.564;5.460;2023-04-22T04:52:03;100399.59;;;5.69;100.00
58473;BME280;44775;51.564;5.460;2023-04-22T04:54:29;100403.91;;;5.70;100.00
58473;BME280;44775;51.564;5.460;2023-04-22T04:56:54;100406.56;;;5.70;100.00
58473;BME280;44775;51.564;5.460;2023-04-22T04:59:21;100409.75;;;5.74;100.00
58473;BME280;44775;51.564;5.460;2023-04-22T05:01:46;100406.16;;;5.75;100.00
58473;BME280;44775;51.564;5.460;2023-04-22T05:04:11;100410.47;;;5.76;100.00
58473;BME280;44775;51.564;5.460;2023-04-22T05:06:36;100413.09;;;5.76;100.00
58473;BME280;44775;51.564;5.460;2023-04-22T05:09:02;100406.38;;;5.81;100.00
58473;BME280;44775;51.564;5.460;2023-04-22T05:11:27;100401.75;;;5.83;100.00
58473;BME280;44775;51.564;5.460;2023-04-22T05:13:52;100412.88;;;5.87;100.00
58473;BME280;44775;51.564;5.460;2023-04-22T05:16:17;100409.13;;;5.89;100.00
58473;BME280;44775;51.564;5.460;2023-04-22T05:18:43;100402.00;;;5.90;100.00
58473;BME280;44775;51.564;5.460;2023-04-22T05:21:08;100393.34;;;5.98;100.00
58473;BME280;44775;51.564;5.460;2023-04-22T05:23:33;100386.59;;;6.03;100.00
58473;BME280;44775;51.564;5.460;2023-04-22T05:25:58;100391.28;;;6.09;100.00
58473;BME280;44775;51.564;5.460;2023-04-22T05:28:24;100392.50;;;6.15;100.00
58473;BME280;44775;51.564;5.460;2023-04-22T05:30:49;100404.31;;;6.21;100.00
58473;BME280;44775;51.564;5.460;2023-04-22T05:33:14;100400.25;;;6.26;100.00
58473;BME280;44775;51.564;5.460;2023-04-22T05:35:40;100404.78;;;6.34;100.00
58473;BME280;44775;51.564;5.460;2023-04-22T05:38:05;100401.38;;;6.42;100.00
58473;BME280;44775;51.564;5.460;2023-04-22T05:40:30;100398.47;;;6.53;100.00
58473;BME280;44775;51.564;5.460;2023-04-22T05:42:56;100393.91;;;6.63;100.00
58473;BME280;44775;51.564;5.460;2023-04-22T05:45:21;100396.47;;;6.73;100.00
58473;BME280;44775;51.564;5.460;2023-04-22T05:47:46;100396.91;;;6.86;100.00
58473;BME280;44775;51.564;5.460;2023-04-22T05:50:12;100399.56;;;6.86;100.00
58473;BME280;44775;51.564;5.460;2023-04-22T05:52:37;100398.97;;;6.92;100.00
58473;BME280;44775;51.564;5.460;2023-04-22T05:55:03;100397.34;;;6.99;100.00
58473;BME280;44775;51.564;5.460;2023-04-22T05:57:28;100399.38;;;7.05;100.00
58473;BME280;44775;51.564;5.460;2023-04-22T05:59:53;100399.19;;;7.07;100.00
58473;BME280;44775;51.564;5.460;2023-04-22T06:02:18;100395.09;;;7.13;100.00
58473;BME280;44775;51.564;5.460;2023-04-22T06:04:43;100393.31;;;7.21;100.00
58473;BME280;44775;51.564;5.460;2023-04-22T06:07:09;100392.53;;;7.29;100.00
58473;BME280;44775;51.564;5.460;2023-04-22T06:09:34;100386.28;;;7.46;100.00
58473;BME280;44775;51.564;5.460;2023-04-22T06:12:00;100393.66;;;7.61;100.00
58473;BME280;44775;51.564;5.460;2023-04-22T06:14:26;100390.31;;;7.58;100.00
58473;BME280;44775;51.564;5.460;2023-04-22T06:16:51;100381.88;;;7.63;100.00
58473;BME280;44775;51.564;5.460;2023-04-22T06:19:17;100384.06;;;7.76;100.00
58473;BME280;44775;51.564;5.460;2023-04-22T06:21:42;100382.94;;;7.87;100.00
58473;BME280;44775;51.564;5.460;2023-04-22T06:24:07;100388.63;;;8.00;100.00
58473;BME280;44775;51.564;5.460;2023-04-22T06:26:34;100384.34;;;8.23;100.00
58473;BME280;44775;51.564;5.460;2023-04-22T06:28:59;100377.88;;;8.59;100.00
58473;BME280;44775;51.564;5.460;2023-04-22T06:31:25;100375.03;;;8.85;100.00
58473;BME280;44775;51.564;5.460;2023-04-22T06:33:50;100374.47;;;9.22;100.00
58473;BME280;44775;51.564;5.460;2023-04-22T06:36:15;100378.75;;;9.70;100.00
58473;BME280;44775;51.564;5.460;2023-04-22T06:38:40;100380.22;;;10.04;100.00
58473;BME280;44775;51.564;5.460;2023-04-22T06:41:05;100392.63;;;10.28;100.00
58473;BME280;44775;51.564;5.460;2023-04-22T06:43:31;100385.88;;;10.40;100.00
58473;BME280;44775;51.564;5.460;2023-04-22T06:45:56;100385.84;;;10.63;100.00
58473;BME280;44775;51.564;5.460;2023-04-22T06:48:21;100384.38;;;10.76;100.00
58473;BME280;44775;51.564;5.460;2023-04-22T06:50:46;100387.41;;;11.10;100.00
58473;BME280;44775;51.564;5.460;2023-04-22T06:53:11;100381.50;;;11.30;100.00
58473;BME280;44775;51.564;5.460;2023-04-22T06:55:37;100377.22;;;11.50;100.00
58473;BME280;44775;51.564;5.460;2023-04-22T06:58:02;100379.63;;;11.75;100.00
58473;BME280;44775;51.564;5.460;2023-04-22T07:00:27;100382.28;;;11.90;100.00
58473;BME280;44775;51.564;5.460;2023-04-22T07:02:53;100386.16;;;12.23;100.00
58473;BME280;44775;51.564;5.460;2023-04-22T07:05:18;100387.09;;;12.59;100.00
58473;BME280;44775;51.564;5.460;2023-04-22T07:07:43;100384.78;;;12.77;100.00
58473;BME280;44775;51.564;5.460;2023-04-22T07:10:09;100386.78;;;13.25;100.00
58473;BME280;44775;51.564;5.460;2023-04-22T07:12:35;100390.16;;;13.81;100.00
58473;BME280;44775;51.564;5.460;2023-04-22T07:15:00;100385.94;;;14.20;100.00
58473;BME280;44775;51.564;5.460;2023-04-22T07:17:25;100390.91;;;14.36;100.00
58473;BME280;44775;51.564;5.460;2023-04-22T07:19:50;100377.91;;;14.40;100.00
58473;BME280;44775;51.564;5.460;2023-04-22T07:22:16;100377.88;;;14.27;100.00
58473;BME280;44775;51.564;5.460;2023-04-22T07:24:41;100377.00;;;14.06;100.00
58473;BME280;44775;51.564;5.460;2023-04-22T07:27:06;100373.03;;;13.89;100.00
58473;BME280;44775;51.564;5.460;2023-04-22T07:29:31;100386.78;;;13.66;93.24
58473;BME280;44775;51.564;5.460;2023-04-22T07:31:56;100383.53;;;13.77;100.00
58473;BME280;44775;51.564;5.460;2023-04-22T07:34:22;100385.94;;;14.20;100.00
58473;BME280;44775;51.564;5.460;2023-04-22T07:36:48;100374.81;;;14.43;100.00
58473;BME280;44775;51.564;5.460;2023-04-22T07:39:13;100387.25;;;14.57;100.00
58473;BME280;44775;51.564;5.460;2023-04-22T07:41:38;100384.78;;;14.82;100.00
58473;BME280;44775;51.564;5.460;2023-04-22T07:44:03;100386.00;;;15.06;100.00
58473;BME280;44775;51.564;5.460;2023-04-22T07:46:29;100383.66;;;15.43;100.00
58473;BME280;44775;51.564;5.460;2023-04-22T07:48:54;100396.84;;;15.58;96.56
58473;BME280;44775;51.564;5.460;2023-04-22T07:51:19;100396.16;;;15.82;100.00
58473;BME280;44775;51.564;5.460;2023-04-22T07:53:44;100409.16;;;15.92;93.45
58473;BME280;44775;51.564;5.460;2023-04-22T07:56:10;100388.66;;;15.91;96.66
58473;BME280;44775;51.564;5.460;2023-04-22T07:58:35;100374.22;;;15.72;94.35
58473;BME280;44775;51.564;5.460;2023-04-22T08:01:00;100363.91;;;15.69;96.18
58473;BME280;44775;51.564;5.460;2023-04-22T08:03:25;100375.63;;;15.88;100.00
58473;BME280;44775;51.564;5.460;2023-04-22T08:05:50;100364.50;;;15.71;100.00
58473;BME280;44775;51.564;5.460;2023-04-22T08:08:16;100363.44;;;15.66;98.33
58473;BME280;44775;51.564;5.460;2023-04-22T08:10:41;100354.44;;;15.92;100.00
58473;BME280;44775;51.564;5.460;2023-04-22T08:13:06;100355.63;;;16.02;92.15
58473;BME280;44775;51.564;5.460;2023-04-22T08:15:31;100356.56;;;16.21;93.55
58473;BME280;44775;51.564;5.460;2023-04-22T08:17:57;100352.13;;;16.59;94.40
58473;BME280;44775;51.564;5.460;2023-04-22T08:20:22;100344.75;;;16.97;97.39
58473;BME280;44775;51.564;5.460;2023-04-22T08:22:47;100354.91;;;17.20;89.74
58473;BME280;44775;51.564;5.460;2023-04-22T08:25:14;100358.72;;;17.50;92.63
58473;BME280;44775;51.564;5.460;2023-04-22T08:27:40;100352.91;;;18.01;89.35
58473;BME280;44775;51.564;5.460;2023-04-22T08:30:05;100357.38;;;18.49;88.31
58473;BME280;44775;51.564;5.460;2023-04-22T08:32:31;100361.28;;;18.65;78.99
58473;BME280;44775;51.564;5.460;2023-04-22T08:34:56;100348.47;;;18.60;80.90
58473;BME280;44775;51.564;5.460;2023-04-22T08:37:21;100354.91;;;18.36;79.38
58473;BME280;44775;51.564;5.460;2023-04-22T08:39:46;100358.00;;;18.09;78.98
58473;BME280;44775;51.564;5.460;2023-04-22T08:42:11;100347.81;;;17.93;85.40
58473;BME280;44775;51.564;5.460;2023-04-22T08:44:37;100341.91;;;17.84;84.19
58473;BME280;44775;51.564;5.460;2023-04-22T08:47:03;100332.31;;;18.42;84.79
58473;BME280;44775;51.564;5.460;2023-04-22T08:49:28;100319.19;;;18.81;81.46
58473;BME280;44775;51.564;5.460;2023-04-22T08:51:54;100323.19;;;19.14;71.54
58473;BME280;44775;51.564;5.460;2023-04-22T08:54:21;100318.63;;;19.43;73.52
58473;BME280;44775;51.564;5.460;2023-04-22T08:56:47;100316.81;;;19.72;73.49
58473;BME280;44775;51.564;5.460;2023-04-22T08:59:13;100315.38;;;19.81;72.22
58473;BME280;44775;51.564;5.460;2023-04-22T09:01:40;100313.72;;;19.97;79.57
58473;BME280;44775;51.564;5.460;2023-04-22T09:04:05;100315.19;;;20.33;76.86
58473;BME280;44775;51.564;5.460;2023-04-22T09:06:32;100316.00;;;20.84;75.52
58473;BME280;44775;51.564;5.460;2023-04-22T09:08:57;100317.81;;;20.79;59.78
58473;BME280;44775;51.564;5.460;2023-04-22T09:11:24;100312.38;;;20.45;72.95
58473;BME280;44775;51.564;5.460;2023-04-22T09:13:50;100314.88;;;20.01;70.00
58473;BME280;44775;51.564;5.460;2023-04-22T09:16:16;100306.56;;;19.22;60.36
58473;BME280;44775;51.564;5.460;2023-04-22T09:18:42;100314.47;;;19.00;54.38
58473;BME280;44775;51.564;5.460;2023-04-22T09:21:09;100305.28;;;18.89;69.66
58473;BME280;44775;51.564;5.460;2023-04-22T09:23:47;100302.91;;;19.16;67.42
58473;BME280;44775;51.564;5.460;2023-04-22T09:26:13;100305.91;;;18.91;66.12
58473;BME280;44775;51.564;5.460;2023-04-22T09:28:44;100306.56;;;18.51;57.76
58473;BME280;44775;51.564;5.460;2023-04-22T09:31:13;100302.09;;;18.69;70.81
58473;BME280;44775;51.564;5.460;2023-04-22T09:33:38;100298.72;;;18.73;70.53
58473;BME280;44775;51.564;5.460;2023-04-22T09:36:07;100293.19;;;18.80;71.99
58473;BME280;44775;51.564;5.460;2023-04-22T09:38:32;100299.50;;;19.09;72.50
58473;BME280;44775;51.564;5.460;2023-04-22T09:40:57;100291.13;;;19.63;66.89
58473;BME280;44775;51.564;5.460;2023-04-22T09:43:23;100292.22;;;18.86;54.51
58473;BME280;44775;51.564;5.460;2023-04-22T09:45:48;100295.41;;;18.95;61.78
58473;BME280;44775;51.564;5.460;2023-04-22T09:48:14;100292.66;;;19.06;67.19
58473;BME280;44775;51.564;5.460;2023-04-22T09:50:43;100297.13;;;19.24;68.81
58473;BME280;44775;51.564;5.460;2023-04-22T09:53:10;100305.19;;;19.88;69.69
58473;BME280;44775;51.564;5.460;2023-04-22T09:55:37;100299.97;;;20.49;67.46
58473;BME280;44775;51.564;5.460;2023-04-22T09:58:04;100308.66;;;21.02;64.36
58473;BME280;44775;51.564;5.460;2023-04-22T10:00:29;100298.72;;;21.12;61.24
58473;BME280;44775;51.564;5.460;2023-04-22T10:02:55;100300.00;;;21.05;60.83
58473;BME280;44775;51.564;5.460;2023-04-22T10:05:20;100295.91;;;21.24;62.49
58473;BME280;44775;51.564;5.460;2023-04-22T10:07:45;100296.84;;;21.79;59.49
58473;BME280;44775;51.564;5.460;2023-04-22T10:10:11;100304.09;;;22.00;58.41
58473;BME280;44775;51.564;5.460;2023-04-22T10:12:36;100306.66;;;21.36;53.82
58473;BME280;44775;51.564;5.460;2023-04-22T10:15:04;100301.94;;;20.87;60.79
58473;BME280;44775;51.564;5.460;2023-04-22T10:17:35;100295.28;;;20.78;61.46
58473;BME280;44775;51.564;5.460;2023-04-22T10:20:02;100305.31;;;20.78;57.59
58473;BME280;44775;51.564;5.460;2023-04-22T10:22:29;100302.72;;;21.05;60.92
58473;BME280;44775;51.564;5.460;2023-04-22T10:24:54;100326.16;;;21.33;59.27
58473;BME280;44775;51.564;5.460;2023-04-22T10:27:22;100322.31;;;21.73;57.29
58473;BME280;44775;51.564;5.460;2023-04-22T10:29:47;100320.84;;;21.38;55.97
58473;BME280;44775;51.564;5.460;2023-04-22T10:34:47;100305.84;;;20.58;55.90
58473;BME280;44775;51.564;5.460;2023-04-22T10:37:13;100313.31;;;20.67;61.10
58473;BME280;44775;51.564;5.460;2023-04-22T10:39:39;100313.44;;;20.94;57.36
58473;BME280;44775;51.564;5.460;2023-04-22T10:42:09;100303.66;;;20.93;57.55
58473;BME280;44775;51.564;5.460;2023-04-22T10:47:30;100289.44;;;21.47;56.80
58473;BME280;44775;51.564;5.460;2023-04-22T10:50:37;100285.66;;;21.31;55.78
58473;BME280;44775;51.564;5.460;2023-04-22T10:55:47;100298.94;;;20.04;59.35
58473;BME280;44775;51.564;5.460;2023-04-22T10:58:19;100294.38;;;19.36;60.79
58473;BME280;44775;51.564;5.460;2023-04-22T11:00:45;100296.47;;;18.82;63.10
58473;BME280;44775;51.564;5.460;2023-04-22T11:03:12;100297.88;;;18.61;64.61
58473;BME280;44775;51.564;5.460;2023-04-22T11:05:38;100295.81;;;18.21;67.02
58473;BME280;44775;51.564;5.460;2023-04-22T11:08:05;100305.31;;;18.12;67.52
58473;BME280;44775;51.564;5.460;2023-04-22T11:10:31;100299.44;;;18.03;68.69
58473;BME280;44775;51.564;5.460;2023-04-22T11:12:57;100296.56;;;17.86;68.58
58473;BME280;44775;51.564;5.460;2023-04-22T11:15:22;100309.50;;;17.47;71.22
58473;BME280;44775;51.564;5.460;2023-04-22T11:17:52;100300.75;;;17.34;71.95
58473;BME280;44775;51.564;5.460;2023-04-22T11:20:18;100296.59;;;17.31;72.94
58473;BME280;44775;51.564;5.460;2023-04-22T11:22:44;100299.56;;;17.11;80.44
58473;BME280;44775;51.564;5.460;2023-04-22T11:25:09;100292.00;;;17.02;84.26
58473;BME280;44775;51.564;5.460;2023-04-22T11:27:35;100294.75;;;16.70;89.39
58473;BME280;44775;51.564;5.460;2023-04-22T11:30:10;100294.78;;;16.45;89.62
58473;BME280;44775;51.564;5.460;2023-04-22T11:32:37;100286.63;;;16.26;87.27
58473;BME280;44775;51.564;5.460;2023-04-22T11:35:03;100290.31;;;16.07;89.31
58473;BME280;44775;51.564;5.460;2023-04-22T11:37:29;100305.41;;;15.83;92.60
58473;BME280;44775;51.564;5.460;2023-04-22T11:39:58;100302.56;;;15.65;92.74
58473;BME280;44775;51.564;5.460;2023-04-22T11:42:23;100299.31;;;15.49;96.67
58473;BME280;44775;51.564;5.460;2023-04-22T11:44:49;100297.69;;;15.42;94.24
58473;BME280;44775;51.564;5.460;2023-04-22T11:47:15;100304.09;;;15.47;91.28
58473;BME280;44775;51.564;5.460;2023-04-22T11:49:40;100304.53;;;15.38;98.22
58473;BME280;44775;51.564;5.460;2023-04-22T11:52:05;100302.41;;;15.53;98.09
58473;BME280;44775;51.564;5.460;2023-04-22T11:54:31;100305.09;;;15.53;96.13
58473;BME280;44775;51.564;5.460;2023-04-22T11:56:57;100301.41;;;15.41;98.89
58473;BME280;44775;51.564;5.460;2023-04-22T11:59:25;100293.59;;;15.32;100.00
58473;BME280;44775;51.564;5.460;2023-04-22T12:01:50;100292.72;;;15.39;99.28
58473;BME280;44775;51.564;5.460;2023-04-22T12:04:15;100297.09;;;15.40;100.00
58473;BME280;44775;51.564;5.460;2023-04-22T12:06:41;100300.56;;;15.47;95.63
58473;BME280;44775;51.564;5.460;2023-04-22T12:09:06;100302.63;;;15.51;100.00
58473;BME280;44775;51.564;5.460;2023-04-22T12:11:32;100297.47;;;15.50;100.00
58473;BME280;44775;51.564;5.460;2023-04-22T12:13:57;100298.81;;;15.66;98.86
58473;BME280;44775;51.564;5.460;2023-04-22T12:16:29;100301.34;;;15.99;99.49
58473;BME280;44775;51.564;5.460;2023-04-22T12:19:03;100286.84;;;16.25;96.69
58473;BME280;44775;51.564;5.460;2023-04-22T12:21:28;100293.41;;;16.36;95.78
58473;BME280;44775;51.564;5.460;2023-04-22T12:23:54;100299.94;;;16.71;93.66
58473;BME280;44775;51.564;5.460;2023-04-22T12:26:21;100296.53;;;16.83;92.82
58473;BME280;44775;51.564;5.460;2023-04-22T12:28:48;100303.31;;;16.92;95.00
58473;BME280;44775;51.564;5.460;2023-04-22T12:31:14;100310.06;;;17.19;92.07
58473;BME280;44775;51.564;5.460;2023-04-22T12:33:39;100302.09;;;17.06;92.53
58473;BME280;44775;51.564;5.460;2023-04-22T12:36:05;100306.81;;;16.92;95.61
58473;BME280;44775;51.564;5.460;2023-04-22T12:38:30;100304.41;;;16.84;92.88
58473;BME280;44775;51.564;5.460;2023-04-22T12:40:56;100300.97;;;16.70;95.04
58473;BME280;44775;51.564;5.460;2023-04-22T12:43:21;100305.22;;;16.60;92.43
58473;BME280;44775;51.564;5.460;2023-04-22T12:45:46;100314.97;;;16.36;93.93
58473;BME280;44775;51.564;5.460;2023-04-22T12:48:11;100318.97;;;16.26;94.27